createdAt,value
2023-03-22T00:01:13.372Z,28.10
2023-03-22T00:03:47.167Z,27.70
2023-03-22T00:06:21.350Z,28.30
2023-03-22T00:08:55.983Z,30.00
2023-03-22T00:11:29.520Z,30.10
2023-03-22T00:14:03.661Z,29.20
2023-03-22T00:16:37.362Z,30.00
2023-03-22T00:19:10.934Z,26.90
2023-03-22T00:21:45.357Z,28.30
2023-03-22T00:24:18.901Z,28.60
2023-03-22T00:26:52.959Z,27.70
2023-03-22T00:29:26.549Z,28.00
2023-03-22T00:32:00.524Z,28.30
2023-03-22T00:34:36.559Z,27.10
2023-03-22T00:37:10.229Z,26.80
2023-03-22T00:39:44.596Z,27.60
2023-03-22T00:42:18.270Z,26.30
2023-03-22T00:44:55.427Z,25.80
2023-03-22T00:47:28.863Z,26.70
2023-03-22T00:50:02.595Z,25.90
2023-03-22T00:52:36.649Z,27.00
2023-03-22T00:55:11.445Z,27.50
2023-03-22T00:57:45.276Z,27.40
2023-03-22T01:00:20.283Z,27.40
2023-03-22T01:03:00.209Z,24.30
2023-03-22T01:05:35.325Z,24.60
2023-03-22T01:08:10.320Z,25.20
2023-03-22T01:10:45.127Z,24.80
2023-03-22T01:13:19.287Z,25.60
2023-03-22T01:15:55.145Z,26.70
2023-03-22T01:18:28.882Z,26.70
2023-03-22T01:21:02.407Z,26.50
2023-03-22T01:23:36.243Z,27.00
2023-03-22T01:26:10.321Z,25.20
2023-03-22T01:28:43.831Z,25.20
2023-03-22T01:31:17.504Z,25.30
2023-03-22T01:33:51.756Z,25.80
2023-03-22T01:36:26.175Z,26.60
2023-03-22T01:39:00.033Z,28.40
2023-03-22T01:41:35.562Z,25.90
2023-03-22T01:44:15.803Z,23.10
2023-03-22T01:46:50.693Z,24.30
2023-03-22T01:49:29.143Z,26.40
2023-03-22T01:52:05.283Z,25.90
2023-03-22T01:55:18.653Z,25.30
2023-03-22T01:57:55.779Z,25.80
2023-03-22T02:00:39.679Z,23.70
2023-03-22T02:03:27.604Z,24.80
2023-03-22T02:06:01.976Z,25.50
2023-03-22T02:08:35.925Z,26.10
2023-03-22T02:11:18.927Z,24.90
2023-03-22T02:17:11.705Z,25.40
2023-03-22T02:20:15.938Z,26.00
2023-03-22T02:23:24.380Z,26.20
2023-03-22T02:26:34.404Z,26.00
2023-03-22T02:29:14.170Z,23.50
2023-03-22T02:32:12.650Z,24.40
2023-03-22T02:38:00.522Z,26.40
2023-03-22T02:40:40.743Z,25.40
2023-03-22T02:43:23.854Z,24.30
2023-03-22T02:46:05.074Z,25.00
2023-03-22T02:48:44.126Z,24.40
2023-03-22T02:51:23.791Z,23.90
2023-03-22T02:54:01.484Z,24.30
2023-03-22T02:56:41.535Z,26.10
2023-03-22T02:59:18.033Z,26.00
2023-03-22T03:01:54.148Z,26.40
2023-03-22T03:04:30.387Z,26.20
2023-03-22T03:07:09.789Z,24.90
2023-03-22T03:09:46.265Z,24.70
2023-03-22T03:12:23.481Z,25.50
2023-03-22T03:14:57.852Z,27.00
2023-03-22T03:17:42.663Z,25.20
2023-03-22T03:20:30.572Z,26.10
2023-03-22T03:23:17.770Z,26.80
2023-03-22T03:26:02.201Z,27.80
2023-03-22T03:28:40.864Z,24.60
2023-03-22T03:31:30.436Z,26.30
2023-03-22T03:34:13.117Z,26.80
2023-03-22T03:36:54.552Z,27.00
2023-03-22T03:39:32.425Z,27.20
2023-03-22T03:42:08.618Z,27.50
2023-03-22T03:44:43.634Z,28.20
2023-03-22T03:47:18.658Z,25.50
2023-03-22T03:49:52.587Z,25.90
2023-03-22T03:52:26.942Z,26.40
2023-03-22T03:55:00.705Z,25.10
2023-03-22T03:57:38.316Z,25.40
2023-03-22T04:00:15.228Z,26.80
2023-03-22T04:03:12.427Z,25.40
2023-03-22T04:06:09.211Z,24.80
2023-03-22T04:08:45.809Z,24.90
2023-03-22T04:11:21.853Z,25.80
2023-03-22T04:13:57.187Z,23.30
2023-03-22T04:16:31.311Z,25.90
2023-03-22T04:19:05.012Z,23.70
2023-03-22T04:21:39.002Z,27.60
2023-03-22T04:24:14.335Z,26.40
2023-03-22T04:26:49.412Z,27.70
2023-03-22T04:29:48.565Z,25.50
2023-03-22T04:33:01.620Z,26.10
2023-03-22T04:35:48.837Z,27.10
2023-03-22T04:38:23.226Z,28.10
2023-03-22T04:40:58.860Z,27.60
2023-03-22T04:43:47.250Z,27.80
2023-03-22T04:46:22.988Z,29.80
2023-03-22T04:49:01.481Z,26.20
2023-03-22T04:51:35.304Z,27.80
2023-03-22T04:54:22.990Z,26.60
2023-03-22T04:56:57.153Z,27.40
2023-03-22T04:59:31.938Z,27.30
2023-03-22T05:02:06.183Z,25.00
2023-03-22T05:04:46.383Z,25.00
2023-03-22T05:07:40.980Z,25.80
2023-03-22T05:10:16.069Z,23.50
2023-03-22T05:12:49.788Z,25.20
2023-03-22T05:15:27.651Z,24.60
2023-03-22T05:18:01.478Z,24.90
2023-03-22T05:20:35.355Z,27.00
2023-03-22T05:23:19.873Z,28.40
2023-03-22T05:25:58.572Z,25.60
2023-03-22T05:28:33.276Z,24.00
2023-03-22T05:31:18.046Z,23.80
2023-03-22T05:34:01.760Z,23.90
2023-03-22T05:36:37.464Z,25.00
2023-03-22T05:39:34.208Z,23.30
2023-03-22T05:42:07.684Z,22.80
2023-03-22T05:44:42.631Z,21.10
2023-03-22T05:47:18.963Z,22.80
2023-03-22T05:50:05.694Z,23.80
2023-03-22T05:52:40.139Z,22.90
2023-03-22T05:55:30.625Z,23.70
2023-03-22T05:58:05.549Z,22.20
2023-03-22T06:00:41.939Z,20.30
2023-03-22T06:03:36.348Z,22.60
2023-03-22T06:06:17.427Z,20.50
2023-03-22T06:09:16.027Z,20.10
2023-03-22T06:11:51.500Z,21.60
2023-03-22T06:14:25.674Z,21.50
2023-03-22T06:17:15.825Z,21.40
2023-03-22T06:19:51.442Z,22.10
2023-03-22T06:22:26.934Z,20.60
2023-03-22T06:25:01.581Z,20.10
2023-03-22T06:27:42.688Z,20.00
2023-03-22T06:30:17.764Z,19.90
2023-03-22T06:33:13.168Z,18.70
2023-03-22T06:35:49.845Z,18.00
2023-03-22T06:38:28.804Z,17.10
2023-03-22T06:41:02.304Z,18.50
2023-03-22T06:43:36.275Z,16.50
2023-03-22T06:46:21.605Z,15.80
2023-03-22T06:49:03.590Z,18.20
2023-03-22T06:51:37.136Z,16.50
2023-03-22T06:54:13.017Z,16.20
2023-03-22T06:56:46.927Z,16.50
2023-03-22T06:59:21.393Z,16.00
2023-03-22T07:01:55.720Z,15.40
2023-03-22T07:04:29.642Z,15.50
2023-03-22T07:07:03.728Z,15.60
2023-03-22T07:09:38.083Z,14.80
2023-03-22T07:12:12.306Z,15.30
2023-03-22T07:14:46.116Z,14.90
2023-03-22T07:17:38.382Z,13.90
2023-03-22T07:20:13.499Z,15.00
2023-03-22T07:22:48.554Z,14.70
2023-03-22T07:25:23.014Z,14.60
2023-03-22T07:28:03.058Z,15.50
2023-03-22T07:30:38.390Z,15.90
2023-03-22T07:33:13.668Z,14.80
2023-03-22T07:35:47.978Z,14.40
2023-03-22T07:38:21.766Z,16.00
2023-03-22T07:40:57.313Z,15.50
2023-03-22T07:43:47.313Z,15.30
2023-03-22T07:46:30.118Z,14.30
2023-03-22T07:49:23.845Z,15.10
2023-03-22T07:52:14.366Z,14.10
2023-03-22T07:54:48.191Z,14.80
2023-03-22T07:57:22.359Z,14.10
2023-03-22T08:00:02.000Z,14.50
2023-03-22T08:02:49.594Z,13.60
2023-03-22T08:05:45.451Z,13.80
2023-03-22T08:08:21.042Z,14.60
2023-03-22T08:10:54.623Z,14.90
2023-03-22T08:13:28.485Z,14.80
2023-03-22T08:16:02.616Z,15.30
2023-03-22T08:18:36.830Z,15.00
2023-03-22T08:21:12.225Z,14.90
2023-03-22T08:23:48.692Z,15.10
2023-03-22T08:26:42.951Z,15.50
2023-03-22T08:29:24.093Z,15.60
2023-03-22T08:32:02.698Z,15.60
2023-03-22T08:34:40.429Z,15.20
2023-03-22T08:37:14.421Z,15.40
2023-03-22T08:39:49.380Z,15.90
2023-03-22T08:42:28.878Z,15.80
2023-03-22T08:45:02.749Z,16.10
2023-03-22T08:47:36.845Z,15.80
2023-03-22T08:50:13.016Z,16.10
2023-03-22T08:52:54.067Z,15.70
2023-03-22T08:55:37.148Z,15.60
2023-03-22T08:58:21.402Z,13.90
2023-03-22T09:01:17.097Z,13.70
2023-03-22T09:04:03.767Z,15.20
2023-03-22T09:06:37.838Z,14.50
2023-03-22T09:09:12.217Z,14.50
2023-03-22T09:11:46.577Z,14.60
2023-03-22T09:14:20.089Z,14.40
2023-03-22T09:16:53.917Z,14.00
2023-03-22T09:19:27.840Z,13.70
2023-03-22T09:22:01.717Z,13.50
2023-03-22T09:24:42.235Z,13.00
2023-03-22T09:27:16.255Z,13.60
2023-03-22T09:29:51.257Z,13.30
2023-03-22T09:32:25.879Z,13.20
2023-03-22T09:35:04.837Z,12.70
2023-03-22T09:37:45.903Z,12.90
2023-03-22T09:40:20.452Z,13.20
2023-03-22T09:42:57.812Z,13.20
2023-03-22T09:45:39.039Z,13.60
2023-03-22T09:48:19.272Z,13.60
2023-03-22T09:50:55.429Z,11.70
2023-03-22T09:53:31.235Z,12.00
2023-03-22T09:56:11.705Z,14.00
2023-03-22T09:58:52.622Z,13.80
2023-03-22T10:01:38.668Z,13.50
2023-03-22T10:04:42.525Z,12.20
2023-03-22T10:07:27.538Z,13.90
2023-03-22T10:10:18.666Z,13.80
2023-03-22T10:13:00.391Z,12.30
2023-03-22T10:15:39.307Z,13.50
2023-03-22T10:18:20.307Z,14.40
2023-03-22T10:21:00.865Z,13.80
2023-03-22T10:23:40.869Z,12.90
2023-03-22T10:26:23.598Z,12.60
2023-03-22T10:29:04.094Z,13.20
2023-03-22T10:31:38.182Z,13.30
2023-03-22T10:34:19.120Z,13.50
2023-03-22T10:36:54.638Z,14.00
2023-03-22T10:39:35.747Z,13.80
2023-03-22T10:42:13.979Z,13.60
2023-03-22T10:44:52.502Z,14.00
2023-03-22T10:47:33.702Z,13.90
2023-03-22T10:50:11.933Z,12.60
2023-03-22T10:52:52.660Z,13.50
2023-03-22T10:55:27.892Z,13.30
2023-03-22T10:58:12.825Z,13.60
2023-03-22T11:00:49.822Z,12.90
2023-03-22T11:03:38.359Z,12.40
2023-03-22T11:06:15.783Z,12.40
2023-03-22T11:08:51.394Z,12.70
2023-03-22T11:11:28.299Z,12.00
2023-03-22T11:14:08.276Z,13.30
2023-03-22T11:16:49.795Z,12.50
2023-03-22T11:19:28.325Z,12.80
2023-03-22T11:22:04.180Z,11.90
2023-03-22T11:24:38.273Z,11.20
2023-03-22T11:27:22.872Z,11.70
2023-03-22T11:29:59.780Z,11.80
2023-03-22T11:32:37.269Z,11.20
2023-03-22T11:35:16.965Z,12.80
2023-03-22T11:37:53.197Z,11.00
2023-03-22T11:40:28.508Z,11.60
2023-03-22T11:43:13.353Z,11.80
2023-03-22T11:45:50.044Z,11.90
2023-03-22T11:48:27.506Z,12.00
2023-03-22T11:51:07.527Z,11.60
2023-03-22T11:53:44.681Z,12.00
2023-03-22T11:56:23.954Z,12.20
2023-03-22T11:59:07.156Z,12.40
2023-03-22T12:01:46.161Z,12.10
2023-03-22T12:04:24.708Z,12.30
2023-03-22T12:09:41.689Z,11.50
2023-03-22T12:12:20.059Z,11.70
2023-03-22T12:14:59.180Z,12.00
2023-03-22T12:17:39.192Z,11.60
2023-03-22T12:20:23.795Z,11.80
2023-03-22T12:22:58.663Z,12.00
2023-03-22T12:25:36.039Z,10.10
2023-03-22T12:28:15.798Z,10.40
2023-03-22T12:30:51.598Z,10.80
2023-03-22T12:33:30.211Z,9.80
2023-03-22T12:36:06.663Z,10.70
2023-03-22T12:38:48.725Z,9.50
2023-03-22T12:41:28.626Z,10.70
2023-03-22T12:44:05.523Z,10.80
2023-03-22T12:46:51.063Z,9.40
2023-03-22T12:49:35.589Z,9.80
2023-03-22T12:52:17.771Z,10.40
2023-03-22T12:54:53.998Z,10.30
2023-03-22T12:57:27.929Z,10.40
2023-03-22T13:00:11.044Z,10.20
2023-03-22T13:02:55.322Z,10.50
2023-03-22T13:05:31.827Z,10.70
2023-03-22T13:08:06.213Z,10.80
2023-03-22T13:10:59.221Z,10.20
2023-03-22T13:13:48.068Z,10.70
2023-03-22T13:16:50.986Z,10.80
2023-03-22T13:19:38.595Z,9.70
2023-03-22T13:22:30.944Z,10.10
2023-03-22T13:25:15.206Z,10.20
2023-03-22T13:27:57.079Z,10.00
2023-03-22T13:30:35.091Z,9.90
2023-03-22T13:33:22.230Z,10.10
2023-03-22T13:35:59.261Z,10.50
2023-03-22T13:38:35.415Z,10.10
2023-03-22T13:41:10.893Z,9.80
2023-03-22T13:43:51.466Z,10.00
2023-03-22T13:46:48.345Z,10.10
2023-03-22T13:49:45.049Z,9.50
2023-03-22T13:52:30.178Z,10.40
2023-03-22T13:55:04.486Z,9.90
2023-03-22T13:57:51.617Z,12.00
2023-03-22T14:00:39.419Z,9.70
2023-03-22T14:03:23.567Z,10.10
2023-03-22T14:06:07.727Z,10.00
2023-03-22T14:08:42.378Z,10.00
2023-03-22T14:11:25.841Z,10.80
2023-03-22T14:14:07.081Z,10.30
2023-03-22T14:16:43.825Z,10.40
2023-03-22T14:19:23.714Z,11.40
